Baruc — 3EPL6 — position and weather

sailwx.info

Track history (hours):
 
Tides and Currents Weather Stations Pressure Air Temp Water Temp Dewpoint Dewpoint Depression Visibility Wind Speed Wind Dir Waves Ship Positions

Baruc

Last reported at 2018-Jan-19 15:09 UTC. Time now 2018-Jan-21 16:59 UTC.
Position N 10°20' W 075°41'.

; draft 5.5 m.

Type: Ship (hazmat cat D). MMSI: 355102000.

Date/timePositionNaut miles runAvg speedWind from/ knotsBaromVisibWave heightAir tempDewpointWater temp
2018-Jan-19 15:09N 10°20' W 075°41'1 9.6
2018-Jan-19 15:00N 10°20' W 075°40'4 9.2
2018-Jan-19 14:30N 10°19' W 075°36'3 6.9
2018-Jan-19 14:00N 10°20' W 075°32'1 0.9
2018-Jan-19 13:25N 10°19' W 075°32'0 0.1
2018-Jan-19 12:58N 10°19' W 075°32'0 0.0
2018-Jan-19 12:28N 10°19' W 075°32'0 0.0
2018-Jan-19 11:58N 10°19' W 075°32'0 0.0
2018-Jan-19 11:22N 10°19' W 075°32'0 0.0
2018-Jan-19 10:58N 10°19' W 075°32'0 0.0
2018-Jan-19 10:25N 10°19' W 075°32'0 0.0
2018-Jan-19 09:58N 10°19' W 075°32'0 0.0
2018-Jan-19 09:28N 10°20' W 075°32'0 0.0
2018-Jan-19 08:58N 10°20' W 075°32'0 0.0
2018-Jan-19 08:28N 10°19' W 075°32'0 0.2
2018-Jan-19 07:58N 10°20' W 075°31'1 1.6
2018-Jan-19 07:28N 10°20' W 075°31'0 0.0
2018-Jan-19 06:58N 10°20' W 075°31'0 0.0
2018-Jan-19 06:28N 10°20' W 075°31'0 0.0
2018-Jan-19 05:58N 10°20' W 075°31'0 0.0
2018-Jan-19 05:28N 10°20' W 075°31'0 0.0
2018-Jan-19 04:58N 10°20' W 075°31'0 0.0
2018-Jan-19 04:28N 10°20' W 075°31'0 0.0
2018-Jan-19 03:58N 10°20' W 075°31'0 0.0
2018-Jan-19 03:28N 10°20' W 075°31'0 0.0
2018-Jan-19 02:58N 10°20' W 075°31'0 0.0
2018-Jan-19 02:28N 10°20' W 075°31'0 0.0
2018-Jan-19 01:58N 10°20' W 075°31'0 0.0
2018-Jan-19 01:28N 10°20' W 075°31'0 0.0
2018-Jan-19 00:58N 10°20' W 075°31'0 0.0
2018-Jan-19 00:28N 10°20' W 075°31'0 0.0
2018-Jan-18 23:52N 10°20' W 075°31'0 0.0
2018-Jan-18 23:28N 10°20' W 075°31'0 0.0
2018-Jan-18 22:58N 10°20' W 075°31'0 0.0
2018-Jan-18 22:28N 10°20' W 075°31'0 0.0
2018-Jan-18 21:58N 10°20' W 075°31'0 0.0
2018-Jan-18 21:28N 10°20' W 075°31'0 0.0
2018-Jan-18 20:58N 10°20' W 075°31'0 0.0
2018-Jan-18 20:28N 10°20' W 075°31'0 0.0
2018-Jan-18 19:58N 10°20' W 075°31'0 0.0
2018-Jan-18 19:28N 10°20' W 075°31'0 0.0
2018-Jan-18 18:58N 10°20' W 075°31'0 0.0
2018-Jan-18 18:28N 10°20' W 075°31'0 0.0
2018-Jan-18 17:58N 10°20' W 075°31'0 0.0
2018-Jan-18 17:28N 10°20' W 075°31'0 0.0
2018-Jan-18 16:58N 10°20' W 075°31'0 0.0
2018-Jan-18 16:28N 10°20' W 075°31'0 0.0
2018-Jan-18 15:52N 10°20' W 075°31'0 0.0
2018-Jan-18 15:28N 10°20' W 075°31'0 0.0
2018-Jan-18 14:57N 10°20' W 075°31'0 0.3
2018-Jan-18 14:30N 10°20' W 075°31'2 3.7
2018-Jan-18 14:00N 10°19' W 075°33'4 8.0
2018-Jan-18 13:30N 10°19' W 075°37'4 8.1
2018-Jan-18 13:00N 10°20' W 075°41'5 8.9
2018-Jan-18 12:28N 10°22' W 075°45'  
Track history (hours):
 
Tides and Currents Weather Stations Pressure Air Temp Water Temp Dewpoint Dewpoint Depression Visibility Wind Speed Wind Dir Waves Ship Positions

Baruc

Last reported at 2018-Jan-19 15:09 UTC. Time now 2018-Jan-21 16:59 UTC.
Position N 10°20' W 075°41'.

; draft 5.5 m.

Type: Ship (hazmat cat D). MMSI: 355102000.

Date/timePositionNaut miles runAvg speedWind from/ knotsBaromVisibWave heightAir tempDewpointWater temp
2018-Jan-19 15:09N 10°20' W 075°41'1 9.6
2018-Jan-19 15:00N 10°20' W 075°40'4 9.2
2018-Jan-19 14:30N 10°19' W 075°36'3 6.9
2018-Jan-19 14:00N 10°20' W 075°32'1 0.9
2018-Jan-19 13:25N 10°19' W 075°32'0 0.1
2018-Jan-19 12:58N 10°19' W 075°32'0 0.0
2018-Jan-19 12:28N 10°19' W 075°32'0 0.0
2018-Jan-19 11:58N 10°19' W 075°32'0 0.0
2018-Jan-19 11:22N 10°19' W 075°32'0 0.0
2018-Jan-19 10:58N 10°19' W 075°32'0 0.0
2018-Jan-19 10:25N 10°19' W 075°32'0 0.0
2018-Jan-19 09:58N 10°19' W 075°32'0 0.0
2018-Jan-19 09:28N 10°20' W 075°32'0 0.0
2018-Jan-19 08:58N 10°20' W 075°32'0 0.0
2018-Jan-19 08:28N 10°19' W 075°32'0 0.2
2018-Jan-19 07:58N 10°20' W 075°31'1 1.6
2018-Jan-19 07:28N 10°20' W 075°31'0 0.0
2018-Jan-19 06:58N 10°20' W 075°31'0 0.0
2018-Jan-19 06:28N 10°20' W 075°31'0 0.0
2018-Jan-19 05:58N 10°20' W 075°31'0 0.0
2018-Jan-19 05:28N 10°20' W 075°31'0 0.0
2018-Jan-19 04:58N 10°20' W 075°31'0 0.0
2018-Jan-19 04:28N 10°20' W 075°31'0 0.0
2018-Jan-19 03:58N 10°20' W 075°31'0 0.0
2018-Jan-19 03:28N 10°20' W 075°31'0 0.0
2018-Jan-19 02:58N 10°20' W 075°31'0 0.0
2018-Jan-19 02:28N 10°20' W 075°31'0 0.0
2018-Jan-19 01:58N 10°20' W 075°31'0 0.0
2018-Jan-19 01:28N 10°20' W 075°31'0 0.0
2018-Jan-19 00:58N 10°20' W 075°31'0 0.0
2018-Jan-19 00:28N 10°20' W 075°31'0 0.0
2018-Jan-18 23:52N 10°20' W 075°31'0 0.0
2018-Jan-18 23:28N 10°20' W 075°31'0 0.0
2018-Jan-18 22:58N 10°20' W 075°31'0 0.0
2018-Jan-18 22:28N 10°20' W 075°31'0 0.0
2018-Jan-18 21:58N 10°20' W 075°31'0 0.0
2018-Jan-18 21:28N 10°20' W 075°31'0 0.0
2018-Jan-18 20:58N 10°20' W 075°31'0 0.0
2018-Jan-18 20:28N 10°20' W 075°31'0 0.0
2018-Jan-18 19:58N 10°20' W 075°31'0 0.0
2018-Jan-18 19:28N 10°20' W 075°31'0 0.0
2018-Jan-18 18:58N 10°20' W 075°31'0 0.0
2018-Jan-18 18:28N 10°20' W 075°31'0 0.0
2018-Jan-18 17:58N 10°20' W 075°31'0 0.0
2018-Jan-18 17:28N 10°20' W 075°31'0 0.0
2018-Jan-18 16:58N 10°20' W 075°31'0 0.0
2018-Jan-18 16:28N 10°20' W 075°31'0 0.0
2018-Jan-18 15:52N 10°20' W 075°31'0 0.0
2018-Jan-18 15:28N 10°20' W 075°31'0 0.0
2018-Jan-18 14:57N 10°20' W 075°31'0 0.3
2018-Jan-18 14:30N 10°20' W 075°31'2 3.7
2018-Jan-18 14:00N 10°19' W 075°33'4 8.0
2018-Jan-18 13:30N 10°19' W 075°37'4 8.1
2018-Jan-18 13:00N 10°20' W 075°41'5 8.9
2018-Jan-18 12:28N 10°22' W 075°45'  

Dump ship's entire track history